createdAt,value
2022-10-03T00:02:06.519Z,16.40
2022-10-03T00:04:58.460Z,16.38
2022-10-03T00:07:50.790Z,16.32
2022-10-03T00:10:28.999Z,16.24
2022-10-03T00:13:14.078Z,16.17
2022-10-03T00:15:51.040Z,16.08
2022-10-03T00:18:35.321Z,16.14
2022-10-03T00:21:22.862Z,16.11
2022-10-03T00:24:02.698Z,16.19
2022-10-03T00:26:41.260Z,16.18
2022-10-03T00:29:36.641Z,16.16
2022-10-03T00:32:19.230Z,16.18
2022-10-03T00:35:02.774Z,15.91
2022-10-03T00:37:37.598Z,15.93
2022-10-03T00:40:33.740Z,15.85
2022-10-03T00:43:33.631Z,15.94
2022-10-03T00:46:35.942Z,15.97
2022-10-03T00:49:43.291Z,15.94
2022-10-03T00:52:38.850Z,16.03
2022-10-03T00:55:18.646Z,15.92
2022-10-03T00:58:09.851Z,15.94
2022-10-03T01:00:39.102Z,15.89
2022-10-03T01:03:25.142Z,15.77
2022-10-03T01:06:06.199Z,15.83
2022-10-03T01:09:04.326Z,15.83
2022-10-03T01:11:45.185Z,15.68
2022-10-03T01:14:31.622Z,15.67
2022-10-03T01:17:12.735Z,15.63
2022-10-03T01:20:03.554Z,15.41
2022-10-03T01:23:16.504Z,15.43
2022-10-03T01:25:54.676Z,15.50
2022-10-03T01:28:58.354Z,15.51
2022-10-03T01:31:34.478Z,15.47
2022-10-03T01:34:12.755Z,15.57
2022-10-03T01:36:50.038Z,15.55
2022-10-03T01:39:26.309Z,15.42
2022-10-03T01:42:01.096Z,15.37
2022-10-03T01:44:45.942Z,15.34
2022-10-03T01:47:26.351Z,15.43
2022-10-03T01:50:02.709Z,15.39
2022-10-03T01:52:40.570Z,15.35
2022-10-03T01:55:21.847Z,15.35
2022-10-03T01:58:01.274Z,15.23
2022-10-03T02:00:40.412Z,15.21
2022-10-03T02:03:16.957Z,15.10
2022-10-03T02:05:56.039Z,15.03
2022-10-03T02:08:31.638Z,15.05
2022-10-03T02:11:03.582Z,14.71
2022-10-03T02:13:43.554Z,14.82
2022-10-03T02:16:22.344Z,14.87
2022-10-03T02:18:56.007Z,14.85
2022-10-03T02:21:27.049Z,14.88
2022-10-03T02:24:19.068Z,14.81
2022-10-03T02:27:12.296Z,14.81
2022-10-03T02:30:22.187Z,14.71
2022-10-03T02:33:20.184Z,14.66
2022-10-03T02:36:21.004Z,14.76
2022-10-03T02:39:18.532Z,14.81
2022-10-03T02:42:29.638Z,14.83
2022-10-03T02:45:19.926Z,14.77
2022-10-03T02:48:31.675Z,14.66
2022-10-03T02:51:33.570Z,14.66
2022-10-03T02:54:43.661Z,14.61
2022-10-03T02:57:49.439Z,14.66
2022-10-03T03:00:21.664Z,14.60
2022-10-03T03:03:20.459Z,14.50
2022-10-03T03:06:23.942Z,14.53
2022-10-03T03:09:33.513Z,14.53
2022-10-03T03:12:24.685Z,14.36
2022-10-03T03:15:14.238Z,14.29
2022-10-03T03:17:51.366Z,14.28
2022-10-03T03:20:35.875Z,14.25
2022-10-03T03:23:31.880Z,14.24
2022-10-03T03:26:30.980Z,14.06
2022-10-03T03:29:10.433Z,14.08
2022-10-03T03:31:47.939Z,14.02
2022-10-03T03:34:22.650Z,14.05
2022-10-03T03:36:57.064Z,14.13
2022-10-03T03:39:37.764Z,14.15
2022-10-03T03:42:22.504Z,14.10
2022-10-03T03:45:09.852Z,13.95
2022-10-03T03:48:01.910Z,13.83
2022-10-03T03:50:40.657Z,13.87
2022-10-03T03:53:29.092Z,14.03
2022-10-03T03:56:17.702Z,13.93
2022-10-03T03:58:59.242Z,13.91
2022-10-03T04:04:48.291Z,14.00
2022-10-03T04:07:29.127Z,14.04
2022-10-03T04:10:13.625Z,14.06
2022-10-03T04:13:07.929Z,13.94
2022-10-03T04:15:54.227Z,14.07
2022-10-03T04:18:51.107Z,14.13
2022-10-03T04:21:33.299Z,14.12
2022-10-03T04:24:16.428Z,14.03
2022-10-03T04:27:02.894Z,13.84
2022-10-03T04:29:48.185Z,13.77
2022-10-03T04:32:35.551Z,13.73
2022-10-03T04:35:26.817Z,13.76
2022-10-03T04:38:07.317Z,13.82
2022-10-03T04:40:47.328Z,13.81
2022-10-03T04:43:25.583Z,13.91
2022-10-03T04:46:11.913Z,13.76
2022-10-03T04:48:48.240Z,13.55
2022-10-03T04:51:25.729Z,13.37
2022-10-03T04:54:02.501Z,13.36
2022-10-03T04:56:43.737Z,13.45
2022-10-03T04:59:36.429Z,13.58
2022-10-03T05:02:15.358Z,13.60
2022-10-03T05:05:11.193Z,13.58
2022-10-03T05:07:49.473Z,13.59
2022-10-03T05:10:47.258Z,13.59
2022-10-03T05:13:21.125Z,13.64
2022-10-03T05:16:02.589Z,13.56
2022-10-03T05:18:40.385Z,13.53
2022-10-03T05:21:16.687Z,13.59
2022-10-03T05:24:03.363Z,13.50
2022-10-03T05:26:45.475Z,13.57
2022-10-03T05:29:27.908Z,13.33
2022-10-03T05:32:12.062Z,13.26
2022-10-03T05:34:57.568Z,13.33
2022-10-03T05:37:47.826Z,13.23
2022-10-03T05:40:20.127Z,13.24
2022-10-03T05:43:04.078Z,13.26
2022-10-03T05:45:43.873Z,13.29
2022-10-03T05:48:16.430Z,13.25
2022-10-03T05:51:13.602Z,13.28
2022-10-03T05:54:11.496Z,13.22
2022-10-03T05:57:07.584Z,13.15
2022-10-03T06:00:15.142Z,13.13
2022-10-03T06:03:16.173Z,13.09
2022-10-03T06:06:08.122Z,13.18
2022-10-03T06:08:56.276Z,13.26
2022-10-03T06:12:03.014Z,13.23
2022-10-03T06:14:57.945Z,13.27
2022-10-03T06:17:53.813Z,13.19
2022-10-03T06:21:05.093Z,13.25
2022-10-03T06:24:33.269Z,13.14
2022-10-03T06:27:33.467Z,13.11
2022-10-03T06:30:23.248Z,13.11
2022-10-03T06:33:22.176Z,13.20
2022-10-03T06:36:22.421Z,13.05
2022-10-03T06:39:24.231Z,13.07
2022-10-03T06:42:27.972Z,13.17
2022-10-03T06:45:20.411Z,13.10
2022-10-03T06:48:15.870Z,13.12
2022-10-03T06:50:55.302Z,13.19
2022-10-03T06:54:01.549Z,13.16
2022-10-03T06:57:03.206Z,13.27
2022-10-03T06:59:50.949Z,13.34
2022-10-03T07:03:08.158Z,13.42
2022-10-03T07:06:00.876Z,13.50
2022-10-03T07:09:03.871Z,13.63
2022-10-03T07:12:18.031Z,13.84
2022-10-03T07:15:16.331Z,14.04
2022-10-03T07:18:22.945Z,14.23
2022-10-03T07:21:26.950Z,14.30
2022-10-03T07:24:20.670Z,14.37
2022-10-03T07:27:09.016Z,14.47
2022-10-03T07:30:15.685Z,14.72
2022-10-03T07:33:23.314Z,14.84
2022-10-03T07:36:49.951Z,14.97
2022-10-03T07:39:53.228Z,15.24
2022-10-03T07:42:50.490Z,15.45
2022-10-03T07:45:39.557Z,15.55
2022-10-03T07:48:43.736Z,15.62
2022-10-03T07:51:20.162Z,15.94
2022-10-03T07:54:28.018Z,16.25
2022-10-03T07:57:13.580Z,16.64
2022-10-03T08:00:22.800Z,17.15
2022-10-03T08:03:42.708Z,17.52
2022-10-03T08:06:30.483Z,18.14
2022-10-03T08:09:24.945Z,19.59
2022-10-03T08:12:27.899Z,20.41
2022-10-03T08:15:05.102Z,20.78
2022-10-03T08:18:17.983Z,21.94
2022-10-03T08:20:57.440Z,22.82
2022-10-03T08:24:03.690Z,23.87
2022-10-03T08:26:48.688Z,25.01
2022-10-03T08:29:38.890Z,25.83
2022-10-03T08:32:53.046Z,26.65
2022-10-03T08:35:58.430Z,26.39
2022-10-03T08:39:08.068Z,25.63
2022-10-03T08:42:18.139Z,25.42
2022-10-03T08:45:25.952Z,26.65
2022-10-03T08:48:45.294Z,26.59
2022-10-03T08:51:47.925Z,27.28
2022-10-03T08:54:42.589Z,28.63
2022-10-03T08:57:38.894Z,29.01
2022-10-03T09:00:20.242Z,28.70
2022-10-03T09:03:35.012Z,28.65
2022-10-03T09:07:15.835Z,29.35
2022-10-03T09:10:16.532Z,30.70
2022-10-03T09:13:22.862Z,30.31
2022-10-03T09:16:31.602Z,30.73
2022-10-03T09:19:26.817Z,31.75
2022-10-03T09:22:16.514Z,33.27
2022-10-03T09:25:21.913Z,32.64
2022-10-03T09:28:25.193Z,33.12
2022-10-03T09:31:07.090Z,32.55
2022-10-03T09:34:07.684Z,34.05
2022-10-03T09:37:15.781Z,34.51
2022-10-03T09:40:25.334Z,34.15
2022-10-03T09:43:19.371Z,34.20
2022-10-03T09:46:30.130Z,35.36
2022-10-03T09:49:42.895Z,35.55
2022-10-03T09:52:36.199Z,35.60
2022-10-03T09:55:26.623Z,36.71
2022-10-03T09:58:19.729Z,37.73
2022-10-03T10:01:12.766Z,38.41
2022-10-03T10:04:28.500Z,38.71
2022-10-03T10:07:48.966Z,39.20
2022-10-03T10:10:53.027Z,38.54
2022-10-03T10:14:06.366Z,39.19
2022-10-03T10:16:52.776Z,40.74
2022-10-03T10:19:40.459Z,41.34
2022-10-03T10:22:42.956Z,40.26
2022-10-03T10:25:39.997Z,41.55
2022-10-03T10:28:33.956Z,42.12
2022-10-03T10:31:45.320Z,41.74
2022-10-03T10:34:55.395Z,42.49
2022-10-03T10:37:55.702Z,41.95
2022-10-03T10:40:59.909Z,42.89
2022-10-03T10:44:05.951Z,42.57
2022-10-03T10:47:13.934Z,42.56
2022-10-03T10:50:14.780Z,43.03
2022-10-03T10:53:22.078Z,43.44
2022-10-03T10:56:27.425Z,42.82
2022-10-03T10:59:29.132Z,42.81
2022-10-03T11:02:34.687Z,43.13
2022-10-03T11:05:42.551Z,42.73
2022-10-03T11:08:45.936Z,42.45
2022-10-03T11:11:50.398Z,42.40
2022-10-03T11:14:43.746Z,42.90
2022-10-03T11:17:51.069Z,42.85
2022-10-03T11:21:04.900Z,43.80
2022-10-03T11:24:15.312Z,44.13
2022-10-03T11:27:19.941Z,44.20
2022-10-03T11:30:20.284Z,44.66
2022-10-03T11:33:41.438Z,43.62
2022-10-03T11:36:43.316Z,44.26
2022-10-03T11:39:23.605Z,44.13
2022-10-03T11:41:58.851Z,44.35
2022-10-03T11:44:31.924Z,44.69
2022-10-03T11:47:31.022Z,44.31
2022-10-03T11:50:35.285Z,43.76
2022-10-03T11:53:16.866Z,43.96
2022-10-03T11:55:52.674Z,43.44
2022-10-03T11:58:35.153Z,42.96
2022-10-03T12:01:26.141Z,43.47
2022-10-03T12:04:03.725Z,43.24
2022-10-03T12:07:17.282Z,43.33
2022-10-03T12:10:02.901Z,42.84
2022-10-03T12:12:39.287Z,42.06
2022-10-03T12:15:22.590Z,41.69
2022-10-03T12:18:01.777Z,40.68
2022-10-03T12:20:42.574Z,39.75
2022-10-03T12:23:26.629Z,38.57
2022-10-03T12:25:57.603Z,37.51
2022-10-03T12:28:31.094Z,36.34
2022-10-03T12:31:07.148Z,34.58
2022-10-03T12:33:49.995Z,33.61
2022-10-03T12:36:25.202Z,33.53
2022-10-03T12:39:11.571Z,33.44
2022-10-03T12:42:05.255Z,32.99
2022-10-03T12:44:48.007Z,32.92
2022-10-03T12:47:50.957Z,32.66
2022-10-03T12:50:30.875Z,32.68
2022-10-03T12:53:27.079Z,31.91
2022-10-03T12:56:14.055Z,31.52
2022-10-03T12:59:13.791Z,32.02
2022-10-03T13:02:12.542Z,32.22
2022-10-03T13:04:47.818Z,32.58
2022-10-03T13:07:28.518Z,32.48
2022-10-03T13:10:11.752Z,32.25
2022-10-03T13:12:51.272Z,31.78
2022-10-03T13:15:56.577Z,31.43
2022-10-03T13:19:06.663Z,31.06
2022-10-03T13:21:52.917Z,31.57
2022-10-03T13:24:32.513Z,31.83
2022-10-03T13:27:12.548Z,31.64
2022-10-03T13:29:46.164Z,31.84
2022-10-03T13:32:20.059Z,31.18
2022-10-03T13:35:35.768Z,31.36
2022-10-03T13:38:20.665Z,31.38
2022-10-03T13:40:57.440Z,31.76
2022-10-03T13:43:37.778Z,31.96
2022-10-03T13:46:15.365Z,31.96
2022-10-03T13:48:51.220Z,31.47
2022-10-03T13:51:29.380Z,31.64
2022-10-03T13:54:03.378Z,31.30
2022-10-03T13:56:46.005Z,31.25
2022-10-03T13:59:41.102Z,31.05
2022-10-03T14:02:37.634Z,30.57
2022-10-03T14:05:38.553Z,30.67
2022-10-03T14:08:15.298Z,31.08
2022-10-03T14:11:05.542Z,31.35
2022-10-03T14:13:47.586Z,31.47
2022-10-03T14:16:23.112Z,31.43
2022-10-03T14:19:03.627Z,31.29
2022-10-03T14:21:53.172Z,30.61
2022-10-03T14:24:37.392Z,30.49
2022-10-03T14:27:17.702Z,30.92
2022-10-03T14:30:00.349Z,30.71
2022-10-03T14:32:53.823Z,30.55
2022-10-03T14:35:38.330Z,30.75
2022-10-03T14:38:19.663Z,30.67
2022-10-03T14:40:51.570Z,30.91
2022-10-03T14:43:35.098Z,30.50
2022-10-03T14:46:06.834Z,30.46
2022-10-03T14:48:40.308Z,30.35
2022-10-03T14:51:17.449Z,30.39
2022-10-03T14:53:55.539Z,30.61
2022-10-03T14:56:26.074Z,30.60
2022-10-03T14:58:56.825Z,30.23
2022-10-03T15:01:28.967Z,29.71
2022-10-03T15:04:02.905Z,29.38
2022-10-03T15:06:54.112Z,29.36
2022-10-03T15:09:26.497Z,29.28
2022-10-03T15:12:02.036Z,29.33
2022-10-03T15:14:34.285Z,29.24
2022-10-03T15:17:08.417Z,29.08
2022-10-03T15:19:44.179Z,29.16
2022-10-03T15:22:26.663Z,29.15
2022-10-03T15:24:59.674Z,28.90
2022-10-03T15:27:29.668Z,28.81
2022-10-03T15:30:03.132Z,28.86
2022-10-03T15:32:38.153Z,28.96
2022-10-03T15:35:08.327Z,28.89
2022-10-03T15:37:47.607Z,29.02
2022-10-03T15:40:33.800Z,28.93
2022-10-03T15:43:09.449Z,28.93
2022-10-03T15:45:39.605Z,28.75
2022-10-03T15:48:16.359Z,28.77
2022-10-03T15:50:51.919Z,28.53
2022-10-03T15:53:36.534Z,28.71
2022-10-03T15:56:12.366Z,28.55
2022-10-03T15:58:47.867Z,28.54
2022-10-03T16:01:22.050Z,28.58
2022-10-03T16:03:55.252Z,28.61
2022-10-03T16:06:29.343Z,28.46
2022-10-03T16:09:05.504Z,28.29
2022-10-03T16:11:45.513Z,28.11
2022-10-03T16:14:19.867Z,27.85
2022-10-03T16:16:52.618Z,27.79
2022-10-03T16:19:30.798Z,27.75
2022-10-03T16:22:20.602Z,27.71
2022-10-03T16:25:02.368Z,27.74
2022-10-03T16:27:33.543Z,27.71
2022-10-03T16:30:18.756Z,27.69
2022-10-03T16:32:53.910Z,27.48
2022-10-03T16:35:42.475Z,27.48
2022-10-03T16:38:21.985Z,27.39
2022-10-03T16:40:56.960Z,27.32
2022-10-03T16:43:26.333Z,27.29
2022-10-03T16:45:56.506Z,27.15
2022-10-03T16:48:47.106Z,27.05
2022-10-03T16:51:20.394Z,26.83
2022-10-03T16:53:51.959Z,26.57
2022-10-03T16:56:27.220Z,26.45
2022-10-03T16:59:00.508Z,26.37
2022-10-03T17:01:34.111Z,26.32
2022-10-03T17:04:22.521Z,26.18
2022-10-03T17:06:53.154Z,25.95
2022-10-03T17:09:29.469Z,25.99
2022-10-03T17:12:01.955Z,26.00
2022-10-03T17:14:37.221Z,26.06
2022-10-03T17:17:09.417Z,26.04
2022-10-03T17:19:42.679Z,26.09
2022-10-03T17:22:17.799Z,26.10
2022-10-03T17:24:50.718Z,26.03
2022-10-03T17:27:28.814Z,25.94
2022-10-03T17:30:03.375Z,25.98
2022-10-03T17:32:38.552Z,25.83
2022-10-03T17:35:15.698Z,25.86
2022-10-03T17:38:30.570Z,25.59
2022-10-03T17:41:13.836Z,25.41
2022-10-03T17:43:50.144Z,25.29
2022-10-03T17:46:24.699Z,25.19
2022-10-03T17:49:00.784Z,25.20
2022-10-03T17:51:39.560Z,25.12
2022-10-03T17:54:15.407Z,24.98
2022-10-03T17:56:48.058Z,24.89
2022-10-03T17:59:25.006Z,24.70
2022-10-03T18:01:58.064Z,24.52
2022-10-03T18:04:35.020Z,24.36
2022-10-03T18:07:08.231Z,24.24
2022-10-03T18:09:41.807Z,24.14
2022-10-03T18:12:19.349Z,23.99
2022-10-03T18:15:35.833Z,23.87
2022-10-03T18:18:28.064Z,23.73
2022-10-03T18:21:05.506Z,23.61
2022-10-03T18:23:54.226Z,23.51
2022-10-03T18:26:28.632Z,23.41
2022-10-03T18:29:13.338Z,23.31
2022-10-03T18:31:46.525Z,23.04
2022-10-03T18:34:21.272Z,22.88
2022-10-03T18:36:53.432Z,22.78
2022-10-03T18:39:26.369Z,22.70
2022-10-03T18:41:58.890Z,22.69
2022-10-03T18:44:30.090Z,22.72
2022-10-03T18:47:13.801Z,22.51
2022-10-03T18:49:57.553Z,22.50
2022-10-03T18:52:32.019Z,22.44
2022-10-03T18:55:04.547Z,22.36
2022-10-03T18:57:39.049Z,22.30
2022-10-03T19:00:18.227Z,22.19
2022-10-03T19:02:53.636Z,22.12
2022-10-03T19:05:26.906Z,22.05
2022-10-03T19:08:10.367Z,21.92
2022-10-03T19:10:41.001Z,21.76
2022-10-03T19:13:27.167Z,21.55
2022-10-03T19:16:18.193Z,21.40
2022-10-03T19:18:58.435Z,21.41
2022-10-03T19:21:29.240Z,21.22
2022-10-03T19:24:02.954Z,21.05
2022-10-03T19:26:36.070Z,21.06
2022-10-03T19:29:09.354Z,20.91
2022-10-03T19:31:41.704Z,20.95
2022-10-03T19:34:21.012Z,20.88
2022-10-03T19:36:52.315Z,20.72
2022-10-03T19:39:23.029Z,20.68
2022-10-03T19:41:56.440Z,20.63
2022-10-03T19:44:27.754Z,20.58
2022-10-03T19:47:06.921Z,20.56
2022-10-03T19:49:51.744Z,20.55
2022-10-03T19:52:29.823Z,20.50
2022-10-03T19:55:12.714Z,20.41
2022-10-03T19:57:45.084Z,20.33
2022-10-03T20:00:25.354Z,20.24
2022-10-03T20:03:10.112Z,20.19
2022-10-03T20:06:01.579Z,20.17
2022-10-03T20:08:39.664Z,20.05
2022-10-03T20:11:18.748Z,19.97
2022-10-03T20:13:49.758Z,19.86
2022-10-03T20:16:22.279Z,19.86
2022-10-03T20:18:54.026Z,19.82
2022-10-03T20:21:28.452Z,19.71
2022-10-03T20:23:59.514Z,19.67
2022-10-03T20:26:36.048Z,19.65
2022-10-03T20:29:23.804Z,19.55
2022-10-03T20:31:58.987Z,19.42
2022-10-03T20:34:27.570Z,19.32
2022-10-03T20:37:08.513Z,19.11
2022-10-03T20:39:41.697Z,19.09
2022-10-03T20:42:15.791Z,19.10
2022-10-03T20:44:59.159Z,18.88
2022-10-03T20:47:47.636Z,18.87
2022-10-03T20:50:24.083Z,18.90
2022-10-03T20:52:55.483Z,18.88
2022-10-03T20:55:28.069Z,18.84
2022-10-03T20:58:05.774Z,18.75
2022-10-03T21:00:42.554Z,18.64
2022-10-03T21:03:20.679Z,18.54
2022-10-03T21:05:52.607Z,18.34
2022-10-03T21:08:26.074Z,18.46
2022-10-03T21:10:59.243Z,18.49
2022-10-03T21:13:34.266Z,18.40
2022-10-03T21:16:06.380Z,18.30
2022-10-03T21:18:38.265Z,18.26
2022-10-03T21:21:13.384Z,18.27
2022-10-03T21:23:48.224Z,18.34
2022-10-03T21:26:24.373Z,18.32
2022-10-03T21:29:17.771Z,18.23
2022-10-03T21:31:55.311Z,18.06
2022-10-03T21:34:31.463Z,17.74
2022-10-03T21:37:17.060Z,17.56
2022-10-03T21:39:57.308Z,17.53
2022-10-03T21:42:32.417Z,17.55
2022-10-03T21:45:15.588Z,17.35
2022-10-03T21:47:50.044Z,17.49
2022-10-03T21:50:23.109Z,17.51
2022-10-03T21:53:17.774Z,17.29
2022-10-03T21:56:01.243Z,17.45
2022-10-03T21:58:54.085Z,17.36
2022-10-03T22:01:34.995Z,17.38
2022-10-03T22:04:10.661Z,17.37
2022-10-03T22:06:44.707Z,17.32
2022-10-03T22:09:16.282Z,17.10
2022-10-03T22:11:51.701Z,16.97
2022-10-03T22:14:40.748Z,16.93
2022-10-03T22:17:18.820Z,16.88
2022-10-03T22:19:51.122Z,16.81
2022-10-03T22:22:41.593Z,16.73
2022-10-03T22:25:26.315Z,16.72
2022-10-03T22:28:01.503Z,16.75
2022-10-03T22:30:34.537Z,16.66
2022-10-03T22:33:15.580Z,16.61
2022-10-03T22:35:50.955Z,16.37
2022-10-03T22:38:22.970Z,16.26
2022-10-03T22:40:52.114Z,16.18
2022-10-03T22:43:21.998Z,16.20
2022-10-03T22:45:54.523Z,16.08
2022-10-03T22:48:26.658Z,16.11
2022-10-03T22:50:56.787Z,16.22
2022-10-03T22:53:32.158Z,16.26
2022-10-03T22:56:01.483Z,16.28
2022-10-03T22:58:31.862Z,16.33
2022-10-03T23:01:03.660Z,16.33
2022-10-03T23:03:35.701Z,16.39
2022-10-03T23:06:32.151Z,16.45
2022-10-03T23:09:15.375Z,16.44
2022-10-03T23:11:48.046Z,16.21
2022-10-03T23:14:21.624Z,16.10
2022-10-03T23:16:56.321Z,16.12
2022-10-03T23:19:36.120Z,15.90
2022-10-03T23:22:08.430Z,15.70
2022-10-03T23:24:43.938Z,15.73
2022-10-03T23:27:44.120Z,15.58
2022-10-03T23:30:51.963Z,15.65
2022-10-03T23:33:52.776Z,15.46
2022-10-03T23:36:25.610Z,15.36
2022-10-03T23:39:01.510Z,15.44
2022-10-03T23:41:45.307Z,15.36
2022-10-03T23:44:49.616Z,15.34
2022-10-03T23:47:21.358Z,15.19
2022-10-03T23:49:52.746Z,15.22
2022-10-03T23:52:24.802Z,15.28
2022-10-03T23:54:55.754Z,15.20
2022-10-03T23:57:30.992Z,15.26
2022-10-03T23:59:59.841Z,15.37
